sensor_id;sensor_type;location;lat;lon;timestamp;pressure;altitude;pressure_sealevel;temperature;humidity
75627;BME280;67372;49.404;11.034;2023-04-29T00:01:02;97745.72;;;11.41;86.34
75627;BME280;67372;49.404;11.034;2023-04-29T00:03:28;97749.19;;;11.41;85.90
75627;BME280;67372;49.404;11.034;2023-04-29T00:05:55;97748.97;;;11.43;85.35
75627;BME280;67372;49.404;11.034;2023-04-29T00:08:21;97750.34;;;11.45;85.70
75627;BME280;67372;49.404;11.034;2023-04-29T00:10:48;97752.44;;;11.43;85.45
75627;BME280;67372;49.404;11.034;2023-04-29T00:13:14;97746.53;;;11.41;85.20
75627;BME280;67372;49.404;11.034;2023-04-29T00:15:40;97751.06;;;11.41;84.61
75627;BME280;67372;49.404;11.034;2023-04-29T00:18:07;97747.56;;;11.40;85.63
75627;BME280;67372;49.404;11.034;2023-04-29T00:20:33;97752.69;;;11.42;85.31
75627;BME280;67372;49.404;11.034;2023-04-29T00:23:00;97755.13;;;11.43;84.53
75627;BME280;67372;49.404;11.034;2023-04-29T00:25:26;97754.53;;;11.41;85.23
75627;BME280;67372;49.404;11.034;2023-04-29T00:27:53;97749.78;;;11.43;84.59
75627;BME280;67372;49.404;11.034;2023-04-29T00:30:19;97746.63;;;11.46;84.52
75627;BME280;67372;49.404;11.034;2023-04-29T00:32:45;97746.41;;;11.48;84.33
75627;BME280;67372;49.404;11.034;2023-04-29T00:35:12;97747.78;;;11.50;84.36
75627;BME280;67372;49.404;11.034;2023-04-29T00:37:38;97751.28;;;11.51;83.52
75627;BME280;67372;49.404;11.034;2023-04-29T00:40:05;97747.78;;;11.50;83.92
75627;BME280;67372;49.404;11.034;2023-04-29T00:42:32;97748.84;;;11.49;83.21
75627;BME280;67372;49.404;11.034;2023-04-29T00:44:58;97748.25;;;11.47;83.69
75627;BME280;67372;49.404;11.034;2023-04-29T00:47:24;97748.50;;;11.46;83.73
75627;BME280;67372;49.404;11.034;2023-04-29T00:49:51;97748.25;;;11.47;83.11
75627;BME280;67372;49.404;11.034;2023-04-29T00:52:18;97749.53;;;11.45;83.80
75627;BME280;67372;49.404;11.034;2023-04-29T00:54:44;97755.69;;;11.45;83.40
75627;BME280;67372;49.404;11.034;2023-04-29T00:57:10;97748.16;;;11.42;83.08
75627;BME280;67372;49.404;11.034;2023-04-29T00:59:37;97752.91;;;11.40;83.73
75627;BME280;67372;49.404;11.034;2023-04-29T01:02:03;97749.66;;;11.38;83.53
75627;BME280;67372;49.404;11.034;2023-04-29T01:04:30;97746.63;;;11.34;83.52
75627;BME280;67372;49.404;11.034;2023-04-29T01:09:48;97756.97;;;11.31;83.72
75627;BME280;67372;49.404;11.034;2023-04-29T01:17:35;97759.75;;;11.24;83.99
75627;BME280;67372;49.404;11.034;2023-04-29T01:20:03;97755.09;;;11.20;84.09
75627;BME280;67372;49.404;11.034;2023-04-29T01:22:29;97758.25;;;11.17;84.07
75627;BME280;67372;49.404;11.034;2023-04-29T01:24:56;97749.06;;;11.13;83.36
75627;BME280;67372;49.404;11.034;2023-04-29T01:27:51;97739.28;;;11.06;83.26
75627;BME280;67372;49.404;11.034;2023-04-29T01:30:27;97746.59;;;10.99;82.96
75627;BME280;67372;49.404;11.034;2023-04-29T01:35:51;97739.53;;;10.93;83.25
75627;BME280;67372;49.404;11.034;2023-04-29T01:41:26;97759.47;;;10.91;83.13
75627;BME280;67372;49.404;11.034;2023-04-29T01:43:57;97752.06;;;10.93;83.66
75627;BME280;67372;49.404;11.034;2023-04-29T01:46:23;97756.13;;;10.95;83.96
75627;BME280;67372;49.404;11.034;2023-04-29T01:48:53;97761.47;;;10.95;84.10
75627;BME280;67372;49.404;11.034;2023-04-29T01:51:19;97760.41;;;10.96;83.44
75627;BME280;67372;49.404;11.034;2023-04-29T01:53:46;97754.63;;;10.99;83.67
75627;BME280;67372;49.404;11.034;2023-04-29T01:56:12;97757.63;;;11.03;83.75
75627;BME280;67372;49.404;11.034;2023-04-29T01:58:38;97751.25;;;11.04;83.54
75627;BME280;67372;49.404;11.034;2023-04-29T02:01:05;97757.41;;;11.04;83.33
75627;BME280;67372;49.404;11.034;2023-04-29T02:03:31;97759.25;;;11.04;83.72
75627;BME280;67372;49.404;11.034;2023-04-29T02:05:58;97760.66;;;11.06;83.36
75627;BME280;67372;49.404;11.034;2023-04-29T02:08:24;97762.84;;;11.10;82.81
75627;BME280;67372;49.404;11.034;2023-04-29T02:10:55;97760.19;;;11.10;83.35
75627;BME280;67372;49.404;11.034;2023-04-29T02:13:21;97752.75;;;11.12;82.90
75627;BME280;67372;49.404;11.034;2023-04-29T02:15:48;97753.59;;;11.12;83.94
75627;BME280;67372;49.404;11.034;2023-04-29T02:18:15;97754.19;;;11.14;83.59
75627;BME280;67372;49.404;11.034;2023-04-29T02:20:42;97751.03;;;11.17;83.02
75627;BME280;67372;49.404;11.034;2023-04-29T02:23:08;97751.97;;;11.23;83.52
75627;BME280;67372;49.404;11.034;2023-04-29T02:25:34;97757.88;;;11.25;83.13
75627;BME280;67372;49.404;11.034;2023-04-29T02:28:01;97754.19;;;11.26;82.86
75627;BME280;67372;49.404;11.034;2023-04-29T02:30:27;97754.19;;;11.26;83.47
75627;BME280;67372;49.404;11.034;2023-04-29T02:32:53;97753.59;;;11.24;83.25
75627;BME280;67372;49.404;11.034;2023-04-29T02:35:20;97758.81;;;11.19;83.45
75627;BME280;67372;49.404;11.034;2023-04-29T02:37:46;97755.00;;;11.15;84.08
75627;BME280;67372;49.404;11.034;2023-04-29T02:40:12;97766.34;;;11.10;83.51
75627;BME280;67372;49.404;11.034;2023-04-29T02:42:39;97763.66;;;11.10;83.32
75627;BME280;67372;49.404;11.034;2023-04-29T02:45:05;97761.81;;;11.11;83.32
75627;BME280;67372;49.404;11.034;2023-04-29T02:47:32;97754.41;;;11.13;83.42
75627;BME280;67372;49.404;11.034;2023-04-29T02:49:58;97762.19;;;11.14;83.92
75627;BME280;67372;49.404;11.034;2023-04-29T02:52:24;97762.41;;;11.13;83.28
75627;BME280;67372;49.404;11.034;2023-04-29T02:54:51;97763.25;;;11.13;83.89
75627;BME280;67372;49.404;11.034;2023-04-29T02:57:17;97763.00;;;11.15;83.23
75627;BME280;67372;49.404;11.034;2023-04-29T02:59:43;97759.06;;;11.17;83.42
75627;BME280;67372;49.404;11.034;2023-04-29T03:02:10;97752.44;;;11.20;83.35
75627;BME280;67372;49.404;11.034;2023-04-29T03:04:36;97751.16;;;11.22;83.38
75627;BME280;67372;49.404;11.034;2023-04-29T03:07:02;97758.94;;;11.24;83.48
75627;BME280;67372;49.404;11.034;2023-04-29T03:09:29;97764.03;;;11.25;83.74
75627;BME280;67372;49.404;11.034;2023-04-29T03:11:55;97765.44;;;11.28;83.53
75627;BME280;67372;49.404;11.034;2023-04-29T03:14:21;97766.00;;;11.30;83.27
75627;BME280;67372;49.404;11.034;2023-04-29T03:16:48;97761.25;;;11.32;83.51
75627;BME280;67372;49.404;11.034;2023-04-29T03:19:14;97761.25;;;11.32;83.95
75627;BME280;67372;49.404;11.034;2023-04-29T03:21:41;97760.66;;;11.30;83.42
75627;BME280;67372;49.404;11.034;2023-04-29T03:24:07;97756.63;;;11.27;83.71
75627;BME280;67372;49.404;11.034;2023-04-29T03:26:33;97745.59;;;11.24;83.36
75627;BME280;67372;49.404;11.034;2023-04-29T03:29:00;97755.69;;;11.22;83.71
75627;BME280;67372;49.404;11.034;2023-04-29T03:31:26;97756.16;;;11.19;82.88
75627;BME280;67372;49.404;11.034;2023-04-29T03:33:52;97761.97;;;11.16;83.07
75627;BME280;67372;49.404;11.034;2023-04-29T03:36:19;97763.81;;;11.15;83.78
75627;BME280;67372;49.404;11.034;2023-04-29T03:38:45;97758.47;;;11.15;83.87
75627;BME280;67372;49.404;11.034;2023-04-29T03:41:12;97761.16;;;11.15;83.67
75627;BME280;67372;49.404;11.034;2023-04-29T03:43:38;97763.59;;;11.17;84.27
75627;BME280;67372;49.404;11.034;2023-04-29T03:46:04;97768.69;;;11.18;84.01
75627;BME280;67372;49.404;11.034;2023-04-29T03:48:31;97763.13;;;11.20;83.11
75627;BME280;67372;49.404;11.034;2023-04-29T03:50:57;97761.03;;;11.22;83.39
75627;BME280;67372;49.404;11.034;2023-04-29T03:53:23;97761.84;;;11.22;83.71
75627;BME280;67372;49.404;11.034;2023-04-29T03:55:50;97759.75;;;11.24;83.24
75627;BME280;67372;49.404;11.034;2023-04-29T03:58:16;97766.25;;;11.28;83.15
75627;BME280;67372;49.404;11.034;2023-04-29T04:00:43;97772.41;;;11.29;82.77
75627;BME280;67372;49.404;11.034;2023-04-29T04:03:09;97768.69;;;11.30;83.19
75627;BME280;67372;49.404;11.034;2023-04-29T04:05:36;97769.25;;;11.32;82.82
75627;BME280;67372;49.404;11.034;2023-04-29T04:08:02;97777.28;;;11.32;83.15
75627;BME280;67372;49.404;11.034;2023-04-29T04:10:28;97776.22;;;11.33;83.62
75627;BME280;67372;49.404;11.034;2023-04-29T04:12:55;97781.13;;;11.36;82.84
75627;BME280;67372;49.404;11.034;2023-04-29T04:15:21;97794.03;;;11.39;82.79
75627;BME280;67372;49.404;11.034;2023-04-29T04:17:47;97786.81;;;11.40;83.07
75627;BME280;67372;49.404;11.034;2023-04-29T04:20:14;97794.59;;;11.41;82.98
75627;BME280;67372;49.404;11.034;2023-04-29T04:22:41;97796.22;;;11.42;83.13
75627;BME280;67372;49.404;11.034;2023-04-29T04:25:07;97802.38;;;11.43;83.07
75627;BME280;67372;49.404;11.034;2023-04-29T04:27:34;97800.53;;;11.43;83.11
75627;BME280;67372;49.404;11.034;2023-04-29T04:30:00;97802.72;;;11.46;82.76
75627;BME280;67372;49.404;11.034;2023-04-29T04:32:26;97812.94;;;11.49;83.28
75627;BME280;67372;49.404;11.034;2023-04-29T04:34:53;97806.31;;;11.52;83.12
75627;BME280;67372;49.404;11.034;2023-04-29T04:37:19;97805.84;;;11.55;82.61
75627;BME280;67372;49.404;11.034;2023-04-29T04:39:46;97811.34;;;11.60;82.97
75627;BME280;67372;49.404;11.034;2023-04-29T04:42:12;97805.53;;;11.63;82.72
75627;BME280;67372;49.404;11.034;2023-04-29T04:44:39;97818.19;;;11.67;82.64
75627;BME280;67372;49.404;11.034;2023-04-29T04:47:05;97807.59;;;11.73;82.33
75627;BME280;67372;49.404;11.034;2023-04-29T04:49:31;97816.56;;;11.78;82.86
75627;BME280;67372;49.404;11.034;2023-04-29T04:51:57;97814.03;;;11.83;82.43
75627;BME280;67372;49.404;11.034;2023-04-29T04:54:24;97820.53;;;11.87;82.09
75627;BME280;67372;49.404;11.034;2023-04-29T04:56:50;97817.72;;;11.94;82.63
75627;BME280;67372;49.404;11.034;2023-04-29T04:59:16;97826.66;;;11.99;82.50
75627;BME280;67372;49.404;11.034;2023-04-29T05:01:43;97824.69;;;12.07;82.01
75627;BME280;67372;49.404;11.034;2023-04-29T05:04:09;97813.88;;;12.13;82.58
75627;BME280;67372;49.404;11.034;2023-04-29T05:06:35;97820.69;;;12.21;82.27
75627;BME280;67372;49.404;11.034;2023-04-29T05:09:02;97820.56;;;12.27;82.52
75627;BME280;67372;49.404;11.034;2023-04-29T05:11:28;97816.16;;;12.33;81.89
75627;BME280;67372;49.404;11.034;2023-04-29T05:13:54;97825.91;;;12.39;82.15
75627;BME280;67372;49.404;11.034;2023-04-29T05:16:21;97832.16;;;12.45;82.10
75627;BME280;67372;49.404;11.034;2023-04-29T05:18:47;97827.94;;;12.49;82.27
75627;BME280;67372;49.404;11.034;2023-04-29T05:21:13;97831.56;;;12.54;81.87
75627;BME280;67372;49.404;11.034;2023-04-29T05:23:42;97834.66;;;12.63;82.06
75627;BME280;67372;49.404;11.034;2023-04-29T05:26:09;97836.22;;;12.76;82.35
75627;BME280;67372;49.404;11.034;2023-04-29T05:28:35;97835.69;;;12.90;81.72
75627;BME280;67372;49.404;11.034;2023-04-29T05:31:02;97823.91;;;13.03;81.62
75627;BME280;67372;49.404;11.034;2023-04-29T05:33:28;97832.91;;;13.14;81.45
75627;BME280;67372;49.404;11.034;2023-04-29T05:35:54;97835.31;;;13.27;80.83
75627;BME280;67372;49.404;11.034;2023-04-29T05:38:21;97833.13;;;13.41;80.53
75627;BME280;67372;49.404;11.034;2023-04-29T05:40:47;97844.00;;;13.51;80.19
75627;BME280;67372;49.404;11.034;2023-04-29T05:43:14;97844.09;;;13.56;80.16
75627;BME280;67372;49.404;11.034;2023-04-29T05:45:40;97845.47;;;13.59;79.77
75627;BME280;67372;49.404;11.034;2023-04-29T05:48:06;97850.66;;;13.65;79.38
75627;BME280;67372;49.404;11.034;2023-04-29T05:50:33;97851.78;;;13.69;79.06
75627;BME280;67372;49.404;11.034;2023-04-29T05:53:00;97854.72;;;13.68;79.08
75627;BME280;67372;49.404;11.034;2023-04-29T05:55:26;97862.25;;;13.71;78.86
75627;BME280;67372;49.404;11.034;2023-04-29T05:57:52;97858.75;;;13.70;79.07
75627;BME280;67372;49.404;11.034;2023-04-29T06:00:19;97863.97;;;13.77;78.28
75627;BME280;67372;49.404;11.034;2023-04-29T06:02:45;97863.25;;;13.81;78.55
75627;BME280;67372;49.404;11.034;2023-04-29T06:05:24;97878.66;;;13.91;78.08
75627;BME280;67372;49.404;11.034;2023-04-29T06:07:51;97870.94;;;13.95;77.09
75627;BME280;67372;49.404;11.034;2023-04-29T06:10:17;97867.53;;;13.99;78.23
75627;BME280;67372;49.404;11.034;2023-04-29T06:12:43;97874.66;;;14.10;76.29
75627;BME280;67372;49.404;11.034;2023-04-29T06:15:10;97870.91;;;14.11;76.98
75627;BME280;67372;49.404;11.034;2023-04-29T06:17:36;97872.53;;;14.12;76.57
75627;BME280;67372;49.404;11.034;2023-04-29T06:20:03;97881.94;;;14.15;77.04
75627;BME280;67372;49.404;11.034;2023-04-29T06:22:29;97875.22;;;13.96;76.75
75627;BME280;67372;49.404;11.034;2023-04-29T06:24:56;97886.63;;;13.86;77.34
75627;BME280;67372;49.404;11.034;2023-04-29T06:27:22;97886.38;;;13.88;76.81
75627;BME280;67372;49.404;11.034;2023-04-29T06:29:48;97889.16;;;13.76;77.03
75627;BME280;67372;49.404;11.034;2023-04-29T06:32:15;97902.00;;;13.74;76.97
75627;BME280;67372;49.404;11.034;2023-04-29T06:34:41;97898.16;;;13.70;77.27
75627;BME280;67372;49.404;11.034;2023-04-29T06:37:07;97904.34;;;13.70;76.67
75627;BME280;67372;49.404;11.034;2023-04-29T06:39:34;97907.19;;;13.64;76.28
75627;BME280;67372;49.404;11.034;2023-04-29T06:42:00;97907.03;;;13.54;76.83
75627;BME280;67372;49.404;11.034;2023-04-29T06:44:26;97908.38;;;13.39;77.38
75627;BME280;67372;49.404;11.034;2023-04-29T06:46:52;97905.22;;;13.42;77.23
75627;BME280;67372;49.404;11.034;2023-04-29T06:49:19;97904.72;;;13.45;77.22
75627;BME280;67372;49.404;11.034;2023-04-29T06:51:46;97909.47;;;13.55;77.00
75627;BME280;67372;49.404;11.034;2023-04-29T06:54:12;97906.06;;;13.60;77.00
75627;BME280;67372;49.404;11.034;2023-04-29T06:56:38;97908.81;;;13.65;77.02
75627;BME280;67372;49.404;11.034;2023-04-29T06:59:05;97908.88;;;13.70;77.00
75627;BME280;67372;49.404;11.034;2023-04-29T07:01:31;97907.69;;;13.77;77.28
75627;BME280;67372;49.404;11.034;2023-04-29T07:03:57;97912.63;;;13.86;76.83
75627;BME280;67372;49.404;11.034;2023-04-29T07:06:24;97913.69;;;13.85;76.32
75627;BME280;67372;49.404;11.034;2023-04-29T07:08:51;97921.06;;;13.94;75.87
75627;BME280;67372;49.404;11.034;2023-04-29T07:11:19;97919.13;;;13.90;75.80
75627;BME280;67372;49.404;11.034;2023-04-29T07:13:45;97922.13;;;13.93;75.54
75627;BME280;67372;49.404;11.034;2023-04-29T07:16:15;97930.28;;;13.98;75.31
75627;BME280;67372;49.404;11.034;2023-04-29T07:18:42;97923.03;;;13.99;75.40
75627;BME280;67372;49.404;11.034;2023-04-29T07:21:10;97924.66;;;14.00;74.76
75627;BME280;67372;49.404;11.034;2023-04-29T07:23:37;97927.66;;;14.03;74.66
75627;BME280;67372;49.404;11.034;2023-04-29T07:26:13;97929.78;;;14.01;75.21
75627;BME280;67372;49.404;11.034;2023-04-29T07:28:40;97938.41;;;14.03;74.45
75627;BME280;67372;49.404;11.034;2023-04-29T07:31:07;97934.34;;;14.01;74.40
75627;BME280;67372;49.404;11.034;2023-04-29T07:33:34;97936.59;;;13.92;74.32
75627;BME280;67372;49.404;11.034;2023-04-29T07:36:01;97939.19;;;13.87;74.86
75627;BME280;67372;49.404;11.034;2023-04-29T07:38:28;97935.00;;;13.74;74.98
75627;BME280;67372;49.404;11.034;2023-04-29T07:40:54;97945.03;;;13.67;75.57
75627;BME280;67372;49.404;11.034;2023-04-29T07:43:20;97949.59;;;13.67;76.20
75627;BME280;67372;49.404;11.034;2023-04-29T07:45:47;97947.81;;;13.72;76.56
75627;BME280;67372;49.404;11.034;2023-04-29T07:48:13;97945.88;;;13.85;76.64
75627;BME280;67372;49.404;11.034;2023-04-29T07:50:40;97942.88;;;13.98;76.30
75627;BME280;67372;49.404;11.034;2023-04-29T07:53:06;97940.16;;;14.14;75.36
75627;BME280;67372;49.404;11.034;2023-04-29T07:55:32;97947.00;;;14.22;74.96
75627;BME280;67372;49.404;11.034;2023-04-29T07:57:59;97951.50;;;14.38;74.39
75627;BME280;67372;49.404;11.034;2023-04-29T08:00:25;97955.75;;;14.34;73.91
75627;BME280;67372;49.404;11.034;2023-04-29T08:02:53;97959.31;;;14.57;73.18
75627;BME280;67372;49.404;11.034;2023-04-29T08:05:20;97956.19;;;14.65;73.63
75627;BME280;67372;49.404;11.034;2023-04-29T08:07:48;97966.09;;;14.81;73.18
75627;BME280;67372;49.404;11.034;2023-04-29T08:10:15;97966.44;;;14.90;73.01
75627;BME280;67372;49.404;11.034;2023-04-29T08:12:45;97962.69;;;15.13;71.42
75627;BME280;67372;49.404;11.034;2023-04-29T08:15:12;97963.19;;;15.31;70.54
75627;BME280;67372;49.404;11.034;2023-04-29T08:17:38;97966.63;;;15.54;68.08
75627;BME280;67372;49.404;11.034;2023-04-29T08:20:05;97968.44;;;15.43;70.13
75627;BME280;67372;49.404;11.034;2023-04-29T08:22:31;97974.38;;;15.45;69.39
75627;BME280;67372;49.404;11.034;2023-04-29T08:24:58;97973.63;;;15.28;69.32
75627;BME280;67372;49.404;11.034;2023-04-29T08:27:24;97981.50;;;15.34;69.55
75627;BME280;67372;49.404;11.034;2023-04-29T08:29:50;97977.72;;;15.35;69.11
75627;BME280;67372;49.404;11.034;2023-04-29T08:32:16;97982.69;;;15.44;69.03
75627;BME280;67372;49.404;11.034;2023-04-29T08:34:43;97990.00;;;15.26;69.57
75627;BME280;67372;49.404;11.034;2023-04-29T08:37:10;97990.16;;;15.15;70.09
75627;BME280;67372;49.404;11.034;2023-04-29T08:39:36;97987.88;;;15.07;69.98
75627;BME280;67372;49.404;11.034;2023-04-29T08:42:09;97989.59;;;14.91;70.54
75627;BME280;67372;49.404;11.034;2023-04-29T08:44:35;97996.09;;;14.95;69.49
75627;BME280;67372;49.404;11.034;2023-04-29T08:47:02;98005.44;;;14.70;70.66
75627;BME280;67372;49.404;11.034;2023-04-29T08:49:29;98002.53;;;14.55;71.19
75627;BME280;67372;49.404;11.034;2023-04-29T08:51:55;98005.38;;;14.49;71.09
75627;BME280;67372;49.404;11.034;2023-04-29T08:54:21;98009.03;;;14.26;72.04
75627;BME280;67372;49.404;11.034;2023-04-29T08:56:48;98006.50;;;14.19;72.43
75627;BME280;67372;49.404;11.034;2023-04-29T08:59:17;98008.22;;;14.25;72.89
75627;BME280;67372;49.404;11.034;2023-04-29T09:01:47;98007.63;;;14.40;72.65
75627;BME280;67372;49.404;11.034;2023-04-29T09:04:28;98009.75;;;14.55;73.29
75627;BME280;67372;49.404;11.034;2023-04-29T09:06:56;98015.50;;;14.80;72.47
75627;BME280;67372;49.404;11.034;2023-04-29T09:09:26;98003.25;;;15.11;69.45
75627;BME280;67372;49.404;11.034;2023-04-29T09:11:53;98017.00;;;15.36;69.10
75627;BME280;67372;49.404;11.034;2023-04-29T09:14:19;98015.63;;;15.34;66.76
75627;BME280;67372;49.404;11.034;2023-04-29T09:16:47;98019.44;;;15.60;66.67
75627;BME280;67372;49.404;11.034;2023-04-29T09:19:31;98018.19;;;15.68;65.25
75627;BME280;67372;49.404;11.034;2023-04-29T09:21:57;98020.06;;;15.67;65.45
75627;BME280;67372;49.404;11.034;2023-04-29T09:24:28;98022.53;;;15.74;65.08
75627;BME280;67372;49.404;11.034;2023-04-29T09:26:55;98016.34;;;15.73;64.67
75627;BME280;67372;49.404;11.034;2023-04-29T09:29:22;98019.03;;;15.73;63.24
75627;BME280;67372;49.404;11.034;2023-04-29T09:31:48;98020.81;;;15.62;65.02
75627;BME280;67372;49.404;11.034;2023-04-29T09:34:15;98020.31;;;15.65;65.02
75627;BME280;67372;49.404;11.034;2023-04-29T09:36:49;98021.13;;;15.66;65.17
75627;BME280;67372;49.404;11.034;2023-04-29T09:39:20;98025.94;;;15.64;65.59
75627;BME280;67372;49.404;11.034;2023-04-29T09:44:19;98023.88;;;15.71;64.49
75627;BME280;67372;49.404;11.034;2023-04-29T09:47:00;98019.84;;;15.52;65.31
75627;BME280;67372;49.404;11.034;2023-04-29T09:49:46;98029.56;;;15.53;64.94
75627;BME280;67372;49.404;11.034;2023-04-29T09:52:14;98029.53;;;15.75;64.61
75627;BME280;67372;49.404;11.034;2023-04-29T09:54:42;98022.31;;;15.80;63.68
75627;BME280;67372;49.404;11.034;2023-04-29T09:57:10;98031.41;;;15.74;64.21
75627;BME280;67372;49.404;11.034;2023-04-29T09:59:38;98028.13;;;15.94;64.40
75627;BME280;67372;49.404;11.034;2023-04-29T10:02:16;98031.72;;;16.37;62.29
75627;BME280;67372;49.404;11.034;2023-04-29T10:04:47;98025.00;;;16.39;60.94
75627;BME280;67372;49.404;11.034;2023-04-29T10:07:19;98027.81;;;16.22;62.22
75627;BME280;67372;49.404;11.034;2023-04-29T10:09:47;98035.03;;;16.49;60.14
75627;BME280;67372;49.404;11.034;2023-04-29T10:12:17;98031.91;;;16.62;59.86
75627;BME280;67372;49.404;11.034;2023-04-29T10:14:49;98034.66;;;16.67;59.15
75627;BME280;67372;49.404;11.034;2023-04-29T10:17:19;98027.50;;;16.51;59.91
75627;BME280;67372;49.404;11.034;2023-04-29T10:19:57;98027.03;;;16.59;59.74
75627;BME280;67372;49.404;11.034;2023-04-29T10:22:34;98026.66;;;16.45;58.04
75627;BME280;67372;49.404;11.034;2023-04-29T10:25:01;98038.63;;;16.27;58.61
75627;BME280;67372;49.404;11.034;2023-04-29T10:27:32;98045.38;;;16.62;57.18
75627;BME280;67372;49.404;11.034;2023-04-29T10:29:59;98042.06;;;16.18;58.13
75627;BME280;67372;49.404;11.034;2023-04-29T10:32:27;98047.75;;;16.21;58.54
75627;BME280;67372;49.404;11.034;2023-04-29T10:35:10;98043.75;;;16.29;58.16
75627;BME280;67372;49.404;11.034;2023-04-29T10:37:37;98048.50;;;16.17;58.70
75627;BME280;67372;49.404;11.034;2023-04-29T10:45:27;98043.66;;;15.87;58.25
75627;BME280;67372;49.404;11.034;2023-04-29T10:48:12;98039.53;;;15.79;58.07
75627;BME280;67372;49.404;11.034;2023-04-29T10:50:39;98039.75;;;15.73;58.32
75627;BME280;67372;49.404;11.034;2023-04-29T10:53:06;98045.72;;;16.07;59.32
75627;BME280;67372;49.404;11.034;2023-04-29T10:55:36;98043.75;;;16.29;59.26
75627;BME280;67372;49.404;11.034;2023-04-29T10:58:04;98054.59;;;16.66;56.29
75627;BME280;67372;49.404;11.034;2023-04-29T11:00:32;98044.38;;;16.73;56.56
75627;BME280;67372;49.404;11.034;2023-04-29T11:03:00;98046.28;;;16.78;56.17
75627;BME280;67372;49.404;11.034;2023-04-29T11:05:37;98039.97;;;16.62;56.48
75627;BME280;67372;49.404;11.034;2023-04-29T11:08:13;98046.19;;;16.63;56.70
75627;BME280;67372;49.404;11.034;2023-04-29T11:10:40;98043.19;;;16.59;56.84
75627;BME280;67372;49.404;11.034;2023-04-29T11:13:20;98051.44;;;16.47;56.97
75627;BME280;67372;49.404;11.034;2023-04-29T11:15:46;98046.88;;;16.16;57.73
75627;BME280;67372;49.404;11.034;2023-04-29T11:18:13;98045.94;;;16.00;58.56
75627;BME280;67372;49.404;11.034;2023-04-29T11:23:36;98049.34;;;15.90;59.19
75627;BME280;67372;49.404;11.034;2023-04-29T11:26:03;98055.13;;;15.77;59.83
75627;BME280;67372;49.404;11.034;2023-04-29T11:28:31;98055.97;;;15.83;59.32
75627;BME280;67372;49.404;11.034;2023-04-29T11:30:58;98052.00;;;15.85;59.70
75627;BME280;67372;49.404;11.034;2023-04-29T11:33:26;98059.31;;;15.90;59.30
75627;BME280;67372;49.404;11.034;2023-04-29T11:35:53;98063.56;;;15.86;60.01
75627;BME280;67372;49.404;11.034;2023-04-29T11:38:27;98061.31;;;16.05;59.20
75627;BME280;67372;49.404;11.034;2023-04-29T11:40:54;98066.44;;;16.06;58.28
75627;BME280;67372;49.404;11.034;2023-04-29T11:43:22;98069.50;;;16.15;58.53
75627;BME280;67372;49.404;11.034;2023-04-29T11:45:49;98073.88;;;15.94;58.33
75627;BME280;67372;49.404;11.034;2023-04-29T11:48:20;98074.38;;;15.91;57.71
75627;BME280;67372;49.404;11.034;2023-04-29T11:50:47;98076.13;;;15.80;57.64
75627;BME280;67372;49.404;11.034;2023-04-29T11:53:14;98079.78;;;15.69;57.65
75627;BME280;67372;49.404;11.034;2023-04-29T11:55:41;98086.75;;;15.65;58.42
75627;BME280;67372;49.404;11.034;2023-04-29T11:58:08;98077.53;;;15.61;57.98
75627;BME280;67372;49.404;11.034;2023-04-29T12:00:34;98079.47;;;15.44;58.42
75627;BME280;67372;49.404;11.034;2023-04-29T12:03:12;98070.09;;;15.46;59.17
75627;BME280;67372;49.404;11.034;2023-04-29T12:05:38;98085.69;;;15.66;57.94
75627;BME280;67372;49.404;11.034;2023-04-29T12:08:08;98080.91;;;15.73;58.26
75627;BME280;67372;49.404;11.034;2023-04-29T12:10:35;98078.31;;;15.83;58.41
75627;BME280;67372;49.404;11.034;2023-04-29T12:13:02;98083.47;;;16.12;57.67
75627;BME280;67372;49.404;11.034;2023-04-29T12:15:29;98083.84;;;15.99;57.50
75627;BME280;67372;49.404;11.034;2023-04-29T12:17:56;98079.41;;;16.09;56.77
75627;BME280;67372;49.404;11.034;2023-04-29T12:20:22;98078.72;;;15.97;57.27
75627;BME280;67372;49.404;11.034;2023-04-29T12:22:49;98073.88;;;15.94;57.63
75627;BME280;67372;49.404;11.034;2023-04-29T12:25:16;98076.03;;;15.70;58.76
75627;BME280;67372;49.404;11.034;2023-04-29T12:27:42;98087.53;;;15.44;59.41
75627;BME280;67372;49.404;11.034;2023-04-29T12:30:09;98083.41;;;15.14;59.93
75627;BME280;67372;49.404;11.034;2023-04-29T12:32:36;98085.94;;;15.04;60.20
75627;BME280;67372;49.404;11.034;2023-04-29T12:35:03;98091.03;;;15.05;60.11
75627;BME280;67372;49.404;11.034;2023-04-29T12:37:30;98088.25;;;15.17;60.33
75627;BME280;67372;49.404;11.034;2023-04-29T12:39:56;98098.75;;;15.19;60.13
75627;BME280;67372;49.404;11.034;2023-04-29T12:42:23;98090.06;;;15.12;59.61
75627;BME280;67372;49.404;11.034;2023-04-29T12:44:49;98096.41;;;15.05;60.03
75627;BME280;67372;49.404;11.034;2023-04-29T12:47:16;98104.94;;;15.19;60.23
75627;BME280;67372;49.404;11.034;2023-04-29T12:49:43;98102.56;;;15.23;59.71
75627;BME280;67372;49.404;11.034;2023-04-29T12:52:10;98103.59;;;15.00;59.94
75627;BME280;67372;49.404;11.034;2023-04-29T12:54:40;98105.97;;;14.96;60.08
75627;BME280;67372;49.404;11.034;2023-04-29T12:57:06;98105.75;;;14.81;60.88
75627;BME280;67372;49.404;11.034;2023-04-29T12:59:33;98103.28;;;14.96;60.63
75627;BME280;67372;49.404;11.034;2023-04-29T13:01:59;98102.59;;;14.67;60.59
75627;BME280;67372;49.404;11.034;2023-04-29T13:04:26;98102.81;;;14.66;60.39
75627;BME280;67372;49.404;11.034;2023-04-29T13:06:53;98111.78;;;14.71;59.61
75627;BME280;67372;49.404;11.034;2023-04-29T13:09:19;98099.31;;;14.65;60.05
75627;BME280;67372;49.404;11.034;2023-04-29T13:11:46;98108.19;;;14.66;59.90
75627;BME280;67372;49.404;11.034;2023-04-29T13:14:12;98103.47;;;14.73;59.42
75627;BME280;67372;49.404;11.034;2023-04-29T13:16:38;98106.91;;;14.68;59.54